Time;durP1;ratioP1;P1;durP2;ratioP2;P2;SDS_P1;SDS_P2;PMS_P1;PMS_P2;Temp;Humidity;BMP_temperature;BMP_pressure;BME280_temperature;BME280_humidity;BME280_pressure;Samples;Min_cycle;Max_cycle;Signal;HPM_P1;HPM_P2
2022/11/02 00:00:05;;;;;;;;;;;;;;;10.62;73.67;101183.81;5050257;28;19924;-30
2022/11/02 00:02:30;;;;;;;;;;;;;;;10.61;73.88;101189.94;5049771;28;19979;-30
2022/11/02 00:04:55;;;;;;;;;;;;;;;10.60;73.91;101190.81;5051758;28;19916;-30
2022/11/02 00:07:21;;;;;;;;;;;;;;;10.58;73.68;101192.59;5051633;28;20290;-30
2022/11/02 00:09:46;;;;;;;;;;;;;;;10.56;73.74;101194.34;5051647;28;20346;-30
2022/11/02 00:12:11;;;;;;;;;;;;;;;10.54;73.70;101201.41;5051469;28;19917;-30
2022/11/02 00:14:36;;;;;;;;;;;;;;;10.52;74.00;101213.69;5051776;28;19960;-30
2022/11/02 00:17:02;;;;;;;;;;;;;;;10.51;73.64;101204.03;5051189;28;20004;-30
2022/11/02 00:19:27;;;;;;;;;;;;;;;10.47;73.76;101207.53;5050095;28;19959;-30
2022/11/02 00:21:54;;;;;;;;;;;;;;;10.47;73.74;101212.81;5050690;28;19970;-30
2022/11/02 00:24:19;;;;;;;;;;;;;;;10.44;73.69;101204.88;5053661;28;19944;-30
2022/11/02 00:26:44;;;;;;;;;;;;;;;10.43;73.47;101208.41;5055321;28;20387;-30
2022/11/02 00:29:10;;;;;;;;;;;;;;;10.40;73.33;101199.59;5070779;28;19974;-30
2022/11/02 00:31:35;;;;;;;;;;;;;;;10.39;73.50;101203.13;5070320;28;19912;-30
2022/11/02 00:34:00;;;;;;;;;;;;;;;10.36;73.70;101197.84;5055258;28;19920;-30
2022/11/02 00:36:26;;;;;;;;;;;;;;;10.35;73.62;101196.09;5055303;28;20237;-30
2022/11/02 00:38:52;;;;;;;;;;;;;;;10.32;73.38;101196.06;5053922;28;19927;-30
2022/11/02 00:41:17;;;;;;;;;;;;;;;10.31;73.69;101191.69;5070088;28;19925;-30
2022/11/02 00:43:42;;;;;;;;;;;;;;;10.30;73.74;101195.19;5070428;28;19920;-30
2022/11/02 00:46:08;;;;;;;;;;;;;;;10.27;73.56;101182.00;5054816;28;19913;-30
2022/11/02 00:48:33;;;;;;;;;;;;;;;10.25;73.97;101189.03;5055049;28;19920;-30
2022/11/02 00:50:58;;;;;;;;;;;;;;;10.23;73.61;101193.41;5055007;28;19936;-30
2022/11/02 00:53:23;;;;;;;;;;;;;;;10.20;73.42;101181.13;5055035;28;20328;-30
2022/11/02 00:55:48;;;;;;;;;;;;;;;10.18;73.21;101182.00;5055053;28;20018;-30
2022/11/02 00:58:14;;;;;;;;;;;;;;;10.15;73.06;101180.25;5054725;28;19913;-30
2022/11/02 01:00:39;;;;;;;;;;;;;;;10.13;72.96;101185.53;5053161;28;20370;-30
2022/11/02 01:03:04;;;;;;;;;;;;;;;10.12;73.33;101183.78;5054709;28;19913;-30
2022/11/02 01:05:30;;;;;;;;;;;;;;;10.11;73.32;101187.25;5054904;28;19920;-30
2022/11/02 01:07:55;;;;;;;;;;;;;;;10.08;73.28;101173.22;5054581;28;19967;-30
2022/11/02 01:10:21;;;;;;;;;;;;;;;10.06;73.48;101173.22;5054685;28;19935;-30
2022/11/02 01:12:46;;;;;;;;;;;;;;;10.03;73.35;101173.19;5053177;28;19913;-30
2022/11/02 01:15:11;;;;;;;;;;;;;;;10.03;73.31;101178.47;5054527;28;20285;-30
2022/11/02 01:17:36;;;;;;;;;;;;;;;9.99;73.47;101174.97;5052871;28;20011;-30
2022/11/02 01:20:02;;;;;;;;;;;;;;;9.98;73.86;101169.69;5054416;28;20304;-30
2022/11/02 01:22:27;;;;;;;;;;;;;;;9.98;73.62;101177.59;5054234;28;19920;-30
2022/11/02 01:24:53;;;;;;;;;;;;;;;9.97;73.71;101176.69;5054271;28;20361;-30
2022/11/02 01:27:18;;;;;;;;;;;;;;;9.97;73.84;101183.75;5054251;28;20441;-30
2022/11/02 01:29:43;;;;;;;;;;;;;;;9.96;73.98;101181.97;5054617;28;19917;-30
2022/11/02 01:32:08;;;;;;;;;;;;;;;9.96;73.95;101176.69;5052776;28;19919;-30
2022/11/02 01:34:34;;;;;;;;;;;;;;;9.95;74.09;101174.94;5053743;28;19908;-30
2022/11/02 01:36:59;;;;;;;;;;;;;;;9.92;74.04;101175.81;5053630;28;19919;-30
2022/11/02 01:39:24;;;;;;;;;;;;;;;9.93;74.07;101171.41;5053925;28;19913;-30
2022/11/02 01:41:50;;;;;;;;;;;;;;;9.93;74.27;101181.97;5053563;28;19959;-30
2022/11/02 01:44:25;;;;;;;;;;;;;;;9.93;74.36;101179.31;5053942;28;19913;-30
2022/11/02 01:46:50;;;;;;;;;;;;;;;9.93;74.32;101174.94;5053696;28;19917;-30
2022/11/02 01:49:17;;;;;;;;;;;;;;;9.93;74.32;101172.31;5069358;28;19920;-30
2022/11/02 01:51:46;;;;;;;;;;;;;;;9.94;74.49;101170.56;5052598;28;19913;-30
2022/11/02 01:54:13;;;;;;;;;;;;;;;9.93;74.21;101171.41;5052444;28;19913;-30
2022/11/02 01:56:38;;;;;;;;;;;;;;;9.93;74.32;101167.03;5053593;28;19924;-30
2022/11/02 01:59:05;;;;;;;;;;;;;;;9.93;74.33;101168.78;5052296;28;19912;-30
2022/11/02 02:01:30;;;;;;;;;;;;;;;9.92;74.20;101157.38;5053635;28;20026;-30
2022/11/02 02:03:56;;;;;;;;;;;;;;;9.93;74.16;101160.88;5053915;28;20377;-30
2022/11/02 02:06:21;;;;;;;;;;;;;;;9.90;74.46;101148.59;5052166;28;20332;-30
2022/11/02 02:08:47;;;;;;;;;;;;;;;9.91;74.49;101146.84;5053915;28;20020;-30
2022/11/02 02:11:29;;;;;;;;;;;;;;;9.92;74.32;101151.22;5052123;28;19913;-30
2022/11/02 02:13:58;;;;;;;;;;;;;;;9.91;74.42;101153.00;5053284;28;20305;-30
2022/11/02 02:16:33;;;;;;;;;;;;;;;9.91;74.29;101152.09;5053220;28;21160;-30
2022/11/02 02:18:58;;;;;;;;;;;;;;;9.90;74.08;101145.09;5053408;28;20378;-30
2022/11/02 02:21:31;;;;;;;;;;;;;;;9.90;74.06;101147.72;5051728;28;19924;-30
2022/11/02 02:23:59;;;;;;;;;;;;;;;9.88;73.97;101138.03;5053121;28;19925;-30
2022/11/02 02:26:24;;;;;;;;;;;;;;;9.86;73.97;101145.09;5052971;28;19974;-30
2022/11/02 02:28:53;;;;;;;;;;;;;;;9.85;74.18;101138.06;5052689;28;20007;-30
2022/11/02 02:31:24;;;;;;;;;;;;;;;9.84;74.30;101136.28;5051537;28;20416;-30
2022/11/02 02:33:52;;;;;;;;;;;;;;;9.84;74.12;101131.00;5053199;28;19966;-30
2022/11/02 02:36:17;;;;;;;;;;;;;;;9.82;74.21;101134.53;5052932;28;19920;-30
2022/11/02 02:39:15;;;;;;;;;;;;;;;9.80;74.28;101145.06;5053094;28;19916;-30
2022/11/02 02:41:42;;;;;;;;;;;;;;;9.79;73.97;101131.88;5029096;28;19917;-30
2022/11/02 02:44:12;;;;;;;;;;;;;;;9.78;74.12;101131.03;5052942;28;19912;-30
2022/11/02 02:46:43;;;;;;;;;;;;;;;9.77;73.92;101134.50;5051411;28;19917;-30
2022/11/02 02:49:09;;;;;;;;;;;;;;;9.76;73.98;101138.03;5051502;28;19973;-30
2022/11/02 02:51:34;;;;;;;;;;;;;;;9.76;74.30;101132.75;5051099;28;20544;-30
2022/11/02 02:54:00;;;;;;;;;;;;;;;9.75;73.82;101131.00;5051431;28;19920;-30
2022/11/02 02:56:25;;;;;;;;;;;;;;;9.73;73.99;101132.75;5052880;28;19913;-30
2022/11/02 02:58:57;;;;;;;;;;;;;;;9.72;73.72;101137.16;5052287;28;19940;-30
2022/11/02 03:01:22;;;;;;;;;;;;;;;9.69;74.03;101129.25;5052396;28;20366;-30
2022/11/02 03:03:48;;;;;;;;;;;;;;;9.70;73.72;101135.41;5051239;28;20050;-30
2022/11/02 03:06:13;;;;;;;;;;;;;;;9.67;73.73;101130.97;5051074;28;20015;-30
2022/11/02 03:08:38;;;;;;;;;;;;;;;9.66;74.00;101130.97;5052381;28;20012;-30
2022/11/02 03:11:30;;;;;;;;;;;;;;;9.63;74.16;101132.75;5067370;28;19983;-30
2022/11/02 03:13:58;;;;;;;;;;;;;;;9.59;73.84;101123.09;5051153;28;20250;-30
2022/11/02 03:16:29;;;;;;;;;;;;;;;9.57;74.06;101111.66;5051953;28;19919;-30
2022/11/02 03:18:57;;;;;;;;;;;;;;;9.58;74.21;101121.34;5052499;28;19927;-30
2022/11/02 03:21:31;;;;;;;;;;;;;;;9.58;74.35;101117.81;5050573;28;19917;-30
2022/11/02 03:24:03;;;;;;;;;;;;;;;9.56;74.36;101109.91;5051046;28;20381;-30
2022/11/02 03:26:34;;;;;;;;;;;;;;;9.46;74.31;101110.75;5051215;28;19924;-30
2022/11/02 03:28:59;;;;;;;;;;;;;;;9.43;74.54;101110.72;5051918;28;20479;-30
2022/11/02 03:31:33;;;;;;;;;;;;;;;9.40;75.12;101108.13;5051548;28;19960;-30
2022/11/02 03:34:21;;;;;;;;;;;;;;;9.40;74.96;101103.72;5052147;28;19920;-30
2022/11/02 03:36:48;;;;;;;;;;;;;;;9.41;75.00;101117.75;5046148;28;19913;-30
2022/11/02 03:39:14;;;;;;;;;;;;;;;9.41;75.14;101115.13;5050642;28;19912;-30
2022/11/02 03:41:40;;;;;;;;;;;;;;;9.42;74.85;101119.50;5051625;28;19920;-30
2022/11/02 03:44:15;;;;;;;;;;;;;;;9.44;74.91;101113.38;5050828;28;19913;-30
2022/11/02 03:46:41;;;;;;;;;;;;;;;9.45;74.90;101119.53;5049479;28;19921;-30
2022/11/02 03:49:06;;;;;;;;;;;;;;;9.43;74.65;101113.38;5051964;28;19913;-30
2022/11/02 03:51:31;;;;;;;;;;;;;;;9.45;74.63;101116.91;5050363;28;19913;-30
2022/11/02 03:54:01;;;;;;;;;;;;;;;9.44;74.79;101115.16;5050796;28;19916;-30
2022/11/02 03:56:37;;;;;;;;;;;;;;;9.44;74.76;101116.00;5050369;28;20436;-30
2022/11/02 03:59:02;;;;;;;;;;;;;;;9.45;74.60;101125.69;5052192;28;19959;-30
2022/11/02 04:01:27;;;;;;;;;;;;;;;9.47;74.67;101123.06;5055519;28;19920;-30
2022/11/02 04:03:53;;;;;;;;;;;;;;;9.46;74.64;101121.28;5056083;28;19921;-30
2022/11/02 04:06:18;;;;;;;;;;;;;;;9.42;74.60;101133.56;5054211;28;19913;-30
2022/11/02 04:08:44;;;;;;;;;;;;;;;9.41;74.63;101136.19;5054668;28;19913;-30
2022/11/02 04:16:37;;;;;;;;;;;;;;;9.35;74.60;101135.31;5055326;28;20242;-30
2022/11/02 04:27:14;;;;;;;;;;;;;;;9.26;74.63;101137.91;5055217;28;19967;-30
2022/11/02 04:29:39;;;;;;;;;;;;;;;9.25;74.75;101130.88;5055480;28;19917;-30
2022/11/02 04:32:05;;;;;;;;;;;;;;;9.27;74.92;101144.06;5054389;28;19916;-30
2022/11/02 04:34:30;;;;;;;;;;;;;;;9.23;74.98;101143.13;5050450;28;20357;-30
2022/11/02 04:36:55;;;;;;;;;;;;;;;9.25;74.79;101133.50;5055321;28;20431;-30
2022/11/02 04:39:20;;;;;;;;;;;;;;;9.21;74.99;101134.38;5055325;28;19913;-30
2022/11/02 04:41:45;;;;;;;;;;;;;;;9.21;75.16;101137.00;5054816;28;19913;-30
2022/11/02 04:44:13;;;;;;;;;;;;;;;9.23;74.87;101133.50;5055471;28;19913;-30
2022/11/02 04:46:38;;;;;;;;;;;;;;;9.25;74.69;101130.88;5054993;28;19920;-30
2022/11/02 04:49:04;;;;;;;;;;;;;;;9.26;75.10;101122.09;5054842;28;19916;-30
2022/11/02 04:51:29;;;;;;;;;;;;;;;9.27;74.80;101128.25;5055048;28;19917;-30
2022/11/02 04:53:55;;;;;;;;;;;;;;;9.28;74.51;101125.63;5055087;28;20373;-30
2022/11/02 04:56:20;;;;;;;;;;;;;;;9.26;74.34;101127.38;5053304;28;19912;-30
2022/11/02 04:58:50;;;;;;;;;;;;;;;9.26;74.76;101127.38;5053735;28;20293;-30
2022/11/02 05:01:15;;;;;;;;;;;;;;;9.25;75.05;101125.63;5053460;28;20297;-30
2022/11/02 05:03:40;;;;;;;;;;;;;;;9.23;74.79;101132.59;5054616;28;20244;-30
2022/11/02 05:06:06;;;;;;;;;;;;;;;9.24;74.69;101123.88;5054752;28;19916;-30
2022/11/02 05:08:31;;;;;;;;;;;;;;;9.25;74.94;101125.63;5053664;28;19920;-30
2022/11/02 05:10:57;;;;;;;;;;;;;;;9.23;75.06;101122.97;5053783;28;20003;-30
2022/11/02 05:13:22;;;;;;;;;;;;;;;9.23;75.10;101127.34;5054660;28;19921;-30
2022/11/02 05:15:47;;;;;;;;;;;;;;;9.21;74.86;101129.13;5054688;28;20312;-30
2022/11/02 05:18:13;;;;;;;;;;;;;;;9.21;74.60;101139.63;5054222;28;19921;-30
2022/11/02 05:20:38;;;;;;;;;;;;;;;9.19;75.05;101130.84;5054142;28;19916;-30
2022/11/02 05:23:05;;;;;;;;;;;;;;;9.18;75.12;101131.72;5054462;28;20019;-30
2022/11/02 05:25:30;;;;;;;;;;;;;;;9.18;75.12;101135.25;5054271;28;19928;-30
2022/11/02 05:27:55;;;;;;;;;;;;;;;9.18;75.06;101139.63;5054116;28;19921;-30
2022/11/02 05:30:22;;;;;;;;;;;;;;;9.19;75.22;101130.84;5053876;28;20381;-30
2022/11/02 05:32:48;;;;;;;;;;;;;;;9.18;75.21;101134.34;5069359;28;19956;-30
2022/11/02 05:35:13;;;;;;;;;;;;;;;9.18;75.24;101139.63;5053791;28;19921;-30
2022/11/02 05:37:38;;;;;;;;;;;;;;;9.16;75.03;101146.63;5053928;28;19916;-30
2022/11/02 05:40:04;;;;;;;;;;;;;;;9.16;74.97;101141.34;5052660;28;19955;-30
2022/11/02 05:42:29;;;;;;;;;;;;;;;9.14;75.07;101137.84;5052525;28;20438;-30
2022/11/02 05:44:54;;;;;;;;;;;;;;;9.14;75.01;101137.84;5054359;28;20361;-30
2022/11/02 05:47:19;;;;;;;;;;;;;;;9.12;75.23;101140.47;5053804;28;20263;-30
2022/11/02 05:49:45;;;;;;;;;;;;;;;9.11;74.87;101144.00;5052532;28;19944;-30
2022/11/02 05:52:10;;;;;;;;;;;;;;;9.10;75.29;101158.88;5053571;28;19917;-30
2022/11/02 05:54:35;;;;;;;;;;;;;;;9.10;74.96;101158.00;5054313;28;19917;-30
2022/11/02 05:57:01;;;;;;;;;;;;;;;9.08;75.03;101160.66;5053772;28;20377;-30
2022/11/02 05:59:26;;;;;;;;;;;;;;;9.08;74.84;101167.66;5054029;28;20007;-30
2022/11/02 06:01:51;;;;;;;;;;;;;;;9.06;74.98;101164.13;5052773;28;20032;-30
2022/11/02 06:04:16;;;;;;;;;;;;;;;9.04;75.02;101161.47;5051826;28;19941;-30
2022/11/02 06:06:42;;;;;;;;;;;;;;;9.04;75.01;101164.09;5052390;28;19956;-30
2022/11/02 06:09:07;;;;;;;;;;;;;;;9.03;75.03;101157.09;5068240;28;20197;-30
2022/11/02 06:11:32;;;;;;;;;;;;;;;9.02;74.94;101164.97;5053209;28;19913;-30
2022/11/02 06:13:57;;;;;;;;;;;;;;;9.01;74.91;101169.38;5053795;28;19948;-30
2022/11/02 06:16:23;;;;;;;;;;;;;;;9.00;74.68;101177.25;5053059;28;20384;-30
2022/11/02 06:18:48;;;;;;;;;;;;;;;8.97;74.90;101172.88;5053313;28;19966;-30
2022/11/02 06:21:14;;;;;;;;;;;;;;;8.96;74.96;101178.97;5052470;28;19960;-30
2022/11/02 06:23:39;;;;;;;;;;;;;;;8.97;74.98;101180.75;5053306;28;19962;-30
2022/11/02 06:26:04;;;;;;;;;;;;;;;8.93;74.94;101173.69;5053118;28;19921;-30
2022/11/02 06:28:30;;;;;;;;;;;;;;;8.92;75.19;101185.97;5053721;28;19917;-30
2022/11/02 06:30:55;;;;;;;;;;;;;;;8.91;75.14;101191.22;5052716;28;19913;-30
2022/11/02 06:33:20;;;;;;;;;;;;;;;8.91;74.92;101201.75;5052798;28;19916;-30
2022/11/02 06:35:46;;;;;;;;;;;;;;;8.90;74.92;101194.75;5053035;28;19917;-31
2022/11/02 06:38:12;;;;;;;;;;;;;;;8.88;75.11;101188.56;5052942;28;20006;-30
2022/11/02 06:40:37;;;;;;;;;;;;;;;8.89;75.10;101190.31;5052457;28;20003;-30
2022/11/02 06:43:02;;;;;;;;;;;;;;;8.88;75.18;101205.25;5053244;28;19919;-30
2022/11/02 06:45:28;;;;;;;;;;;;;;;8.87;75.11;101205.25;5052865;28;20227;-30
2022/11/02 06:47:53;;;;;;;;;;;;;;;8.85;75.20;101192.06;5052331;28;20505;-30
2022/11/02 06:50:19;;;;;;;;;;;;;;;8.87;75.41;101207.88;5052603;28;19917;-30
2022/11/02 06:52:45;;;;;;;;;;;;;;;8.85;75.30;101200.84;5052571;28;19971;-30
2022/11/02 06:55:10;;;;;;;;;;;;;;;8.84;75.10;101209.59;5052370;28;19917;-30
2022/11/02 06:57:36;;;;;;;;;;;;;;;8.84;75.45;101214.84;5052619;28;19919;-30
2022/11/02 07:00:03;;;;;;;;;;;;;;;8.85;75.48;101215.75;5051343;28;20329;-30
2022/11/02 07:02:29;;;;;;;;;;;;;;;8.84;75.22;101209.59;5050815;28;20416;-31
2022/11/02 07:04:54;;;;;;;;;;;;;;;8.85;75.27;101202.59;5052310;28;20007;-31
2022/11/02 07:07:19;;;;;;;;;;;;;;;8.84;75.73;101199.06;5052541;28;20410;-31
2022/11/02 07:09:45;;;;;;;;;;;;;;;8.85;75.49;101203.50;5052335;28;20305;-30
2022/11/02 07:12:10;;;;;;;;;;;;;;;8.88;75.69;101207.00;5051969;28;19946;-30
2022/11/02 07:14:35;;;;;;;;;;;;;;;8.87;75.68;101213.13;5052622;28;20053;-30
2022/11/02 07:17:00;;;;;;;;;;;;;;;8.89;75.92;101220.16;5052134;28;19921;-30
2022/11/02 07:19:26;;;;;;;;;;;;;;;8.91;75.96;101214.91;5067954;28;19917;-30
2022/11/02 07:21:51;;;;;;;;;;;;;;;8.92;76.00;101207.03;5067213;28;19913;-30
2022/11/02 07:24:16;;;;;;;;;;;;;;;8.94;76.09;101209.66;5052024;28;20011;-29
2022/11/02 07:26:41;;;;;;;;;;;;;;;8.96;76.07;101214.06;5052039;28;19916;-30
2022/11/02 07:29:07;;;;;;;;;;;;;;;8.99;75.92;101218.47;5052778;28;20370;-30
2022/11/02 07:31:32;;;;;;;;;;;;;;;9.01;76.21;101224.63;5051838;28;20386;-30
2022/11/02 07:33:57;;;;;;;;;;;;;;;9.04;76.04;101227.25;5050828;28;19924;-30
2022/11/02 07:36:22;;;;;;;;;;;;;;;9.07;76.28;101234.31;5052460;28;20386;-30
2022/11/02 07:38:48;;;;;;;;;;;;;;;9.08;76.27;101239.59;5051947;28;19919;-30
2022/11/02 07:41:13;;;;;;;;;;;;;;;9.10;76.20;101245.72;5051362;28;20004;-29
2022/11/02 07:43:39;;;;;;;;;;;;;;;9.14;75.99;101232.59;5051893;28;19917;-29
2022/11/02 07:46:05;;;;;;;;;;;;;;;9.18;76.17;101234.38;5052065;28;20107;-30
2022/11/02 07:48:30;;;;;;;;;;;;;;;9.22;76.48;101246.66;5051972;28;19971;-30
2022/11/02 07:50:57;;;;;;;;;;;;;;;9.28;76.51;101245.81;5052230;28;20004;-30
2022/11/02 07:53:22;;;;;;;;;;;;;;;9.33;76.51;101247.59;5051989;28;20334;-30
2022/11/02 07:55:48;;;;;;;;;;;;;;;9.38;76.75;101247.66;5051922;28;20408;-30
2022/11/02 07:58:13;;;;;;;;;;;;;;;9.45;76.85;101251.19;5051608;28;19952;-30
2022/11/02 08:00:39;;;;;;;;;;;;;;;9.50;77.16;101252.06;5051184;28;19955;-30
2022/11/02 08:03:05;;;;;;;;;;;;;;;9.57;77.40;101259.13;5052354;28;19951;-30
2022/11/02 08:05:31;;;;;;;;;;;;;;;9.61;77.99;101250.38;5052233;28;20362;-30
2022/11/02 08:08:00;;;;;;;;;;;;;;;9.68;77.55;101255.66;5051522;28;20011;-30
2022/11/02 08:10:26;;;;;;;;;;;;;;;9.74;78.28;101245.16;5051977;28;19920;-30
2022/11/02 08:12:52;;;;;;;;;;;;;;;9.81;78.68;101240.78;5051154;28;19917;-30
2022/11/02 08:15:17;;;;;;;;;;;;;;;9.85;78.21;101248.72;5053151;28;19919;-30
2022/11/02 08:17:42;;;;;;;;;;;;;;;9.93;78.11;101251.34;5051501;28;19917;-30
2022/11/02 08:20:08;;;;;;;;;;;;;;;9.98;77.75;101252.25;5051687;28;19999;-30
2022/11/02 08:22:37;;;;;;;;;;;;;;;10.05;77.96;101261.06;5051102;28;20210;-30
2022/11/02 08:25:02;;;;;;;;;;;;;;;10.12;78.47;101256.69;5051529;28;20089;-30
2022/11/02 08:27:28;;;;;;;;;;;;;;;10.18;78.28;101261.09;5050112;28;19928;-30
2022/11/02 08:29:53;;;;;;;;;;;;;;;10.24;78.39;101255.84;5051872;28;20409;-30
2022/11/02 08:32:19;;;;;;;;;;;;;;;10.31;78.28;101256.72;5051282;28;19913;-30
2022/11/02 08:34:44;;;;;;;;;;;;;;;10.37;77.81;101256.75;5051343;28;19962;-31
2022/11/02 08:37:09;;;;;;;;;;;;;;;10.41;77.75;101250.59;5051372;28;19920;-31
2022/11/02 08:39:35;;;;;;;;;;;;;;;10.49;77.84;101247.97;5050894;28;20000;-31
2022/11/02 08:42:00;;;;;;;;;;;;;;;10.58;79.83;101252.38;5050061;28;20010;-30
2022/11/02 08:44:25;;;;;;;;;;;;;;;10.61;79.92;101245.31;5052621;28;19960;-30
2022/11/02 08:46:51;;;;;;;;;;;;;;;10.68;80.17;101253.25;5054927;28;19964;-30
2022/11/02 08:49:17;;;;;;;;;;;;;;;10.73;80.09;101259.41;5054706;28;19917;-30
2022/11/02 08:51:44;;;;;;;;;;;;;;;10.83;80.69;101257.63;5054867;28;19959;-30
2022/11/02 08:54:09;;;;;;;;;;;;;;;10.87;80.69;101247.06;5055400;28;20354;-30
2022/11/02 08:56:34;;;;;;;;;;;;;;;10.94;80.39;101245.31;5054752;28;19916;-30
2022/11/02 08:59:00;;;;;;;;;;;;;;;10.99;80.40;101247.94;5055892;28;19913;-31
2022/11/02 09:01:25;;;;;;;;;;;;;;;11.08;80.57;101255.88;5054994;28;19920;-30
2022/11/02 09:03:50;;;;;;;;;;;;;;;11.13;80.72;101259.38;5054846;28;19948;-30
2022/11/02 09:06:16;;;;;;;;;;;;;;;11.20;80.45;101254.09;5055151;28;20376;-30
2022/11/02 09:08:41;;;;;;;;;;;;;;;11.26;80.30;101254.03;5054543;28;19921;-31
2022/11/02 09:11:06;;;;;;;;;;;;;;;11.33;80.36;101260.22;5054461;28;19939;-31
2022/11/02 09:13:32;;;;;;;;;;;;;;;11.41;80.33;101254.00;5055296;28;20403;-30
2022/11/02 09:15:58;;;;;;;;;;;;;;;11.48;80.00;101260.16;5054963;28;20015;-30
2022/11/02 09:18:23;;;;;;;;;;;;;;;11.53;80.11;101261.00;5053244;28;19917;-31
2022/11/02 09:20:50;;;;;;;;;;;;;;;11.63;79.61;101266.25;5053228;28;19920;-31
2022/11/02 09:23:15;;;;;;;;;;;;;;;11.70;79.33;101264.47;5055056;28;19978;-31
2022/11/02 09:25:41;;;;;;;;;;;;;;;11.76;79.18;101275.91;5054561;28;20374;-30
2022/11/02 09:28:07;;;;;;;;;;;;;;;11.84;79.30;101278.47;5055326;28;19917;-30
2022/11/02 09:30:33;;;;;;;;;;;;;;;11.93;79.00;101289.03;5052681;28;19959;-30
2022/11/02 09:32:59;;;;;;;;;;;;;;;11.98;78.65;101274.91;5054159;28;20002;-30
2022/11/02 09:35:24;;;;;;;;;;;;;;;12.04;78.27;101285.47;5053000;28;19916;-30
2022/11/02 09:37:50;;;;;;;;;;;;;;;12.09;78.22;101283.69;5069124;28;20382;-30
2022/11/02 09:40:25;;;;;;;;;;;;;;;12.15;77.93;101282.78;5054361;28;20000;-30
2022/11/02 09:42:58;;;;;;;;;;;;;;;12.24;78.13;101269.47;5052975;28;20285;-31
2022/11/02 09:45:23;;;;;;;;;;;;;;;12.30;77.33;101274.75;5054307;28;19913;-31
2022/11/02 09:47:53;;;;;;;;;;;;;;;12.36;77.22;101279.13;5052726;28;20431;-31
2022/11/02 09:50:22;;;;;;;;;;;;;;;12.42;77.21;101273.78;5052740;28;19923;-31
2022/11/02 09:52:55;;;;;;;;;;;;;;;12.47;76.79;101284.31;5051858;28;19916;-31
2022/11/02 09:55:23;;;;;;;;;;;;;;;12.54;76.75;101282.53;5054654;28;19919;-30
2022/11/02 09:57:49;;;;;;;;;;;;;;;12.60;75.97;101278.97;5051583;28;19917;-30
2022/11/02 10:00:17;;;;;;;;;;;;;;;12.64;76.11;101286.84;5053848;28;19923;-30
2022/11/02 10:02:42;;;;;;;;;;;;;;;12.68;75.98;101288.56;5053746;28;19913;-30
2022/11/02 10:05:13;;;;;;;;;;;;;;;12.72;75.65;101281.50;5053403;28;19978;-30
2022/11/02 10:08:11;;;;;;;;;;;;;;;12.78;75.45;101289.41;5052894;28;19968;-31
2022/11/02 10:10:37;;;;;;;;;;;;;;;12.84;74.78;101288.47;5030130;28;19985;-31
2022/11/02 10:13:05;;;;;;;;;;;;;;;12.87;74.81;101280.47;5037627;28;20386;-31
2022/11/02 10:15:46;;;;;;;;;;;;;;;12.93;74.65;101309.56;5034480;28;19964;-31
2022/11/02 10:18:13;;;;;;;;;;;;;;;13.01;74.43;101295.38;5040172;28;19916;-30
2022/11/02 10:20:39;;;;;;;;;;;;;;;13.06;74.57;101298.84;5051980;28;20297;-31
2022/11/02 10:23:06;;;;;;;;;;;;;;;13.09;74.32;101294.41;5052911;28;20011;-30
2022/11/02 10:25:32;;;;;;;;;;;;;;;13.14;74.45;101307.59;5053789;28;19913;-30
2022/11/02 10:28:03;;;;;;;;;;;;;;;13.18;74.36;101298.72;5053480;28;19916;-30
2022/11/02 10:30:28;;;;;;;;;;;;;;;13.24;74.37;101304.88;5052043;28;19974;-30
2022/11/02 10:32:53;;;;;;;;;;;;;;;13.28;74.40;101302.19;5052831;28;20418;-29
2022/11/02 10:35:22;;;;;;;;;;;;;;;13.34;73.76;101311.84;5051467;28;19924;-30
2022/11/02 10:37:54;;;;;;;;;;;;;;;13.36;73.19;101315.31;5046067;28;19913;-30
2022/11/02 10:40:25;;;;;;;;;;;;;;;13.41;73.13;101316.16;5036963;28;19967;-30
2022/11/02 10:43:17;;;;;;;;;;;;;;;13.47;73.13;101326.69;5052936;28;20015;-30
2022/11/02 10:45:54;;;;;;;;;;;;;;;13.54;73.15;101331.97;5050897;28;19921;-31
2022/11/02 10:48:25;;;;;;;;;;;;;;;13.58;73.36;101333.69;5053396;28;19917;-30
2022/11/02 10:50:57;;;;;;;;;;;;;;;13.62;72.97;101334.50;5051210;28;19916;-31
2022/11/02 10:53:22;;;;;;;;;;;;;;;13.65;72.06;101327.44;5053018;28;19923;-30
2022/11/02 10:55:55;;;;;;;;;;;;;;;13.67;71.95;101325.63;5052784;28;20297;-30
2022/11/02 10:58:20;;;;;;;;;;;;;;;13.71;71.94;101324.69;5051780;28;20373;-30
2022/11/02 11:00:50;;;;;;;;;;;;;;;13.76;71.46;101322.00;5052688;28;19992;-31
2022/11/02 11:03:16;;;;;;;;;;;;;;;13.81;71.74;101321.94;5052770;28;19963;-30
2022/11/02 11:05:41;;;;;;;;;;;;;;;13.84;71.84;101337.81;5051307;28;19917;-30
2022/11/02 11:08:19;;;;;;;;;;;;;;;13.87;70.92;101324.50;5051761;28;19928;-30
2022/11/02 11:10:45;;;;;;;;;;;;;;;13.91;70.55;101331.50;5034477;28;19912;-30
2022/11/02 11:13:14;;;;;;;;;;;;;;;13.93;69.67;101324.44;5052360;28;19913;-30
2022/11/02 11:15:39;;;;;;;;;;;;;;;13.95;70.22;101327.06;5051367;28;19951;-30
2022/11/02 11:18:12;;;;;;;;;;;;;;;13.99;70.31;101328.78;5050992;28;19963;-30
2022/11/02 11:20:38;;;;;;;;;;;;;;;14.03;70.64;101324.28;5052384;28;20354;-30
2022/11/02 11:23:08;;;;;;;;;;;;;;;14.07;70.67;101334.00;5051986;28;19916;-30
2022/11/02 11:25:33;;;;;;;;;;;;;;;14.10;70.09;101326.84;5052584;28;19913;-30
2022/11/02 11:27:59;;;;;;;;;;;;;;;14.16;69.79;101322.34;5051990;28;19917;-30
2022/11/02 11:30:26;;;;;;;;;;;;;;;14.20;69.69;101324.97;5050507;28;19917;-30
2022/11/02 11:32:51;;;;;;;;;;;;;;;14.26;69.77;101331.06;5050732;28;20374;-30
2022/11/02 11:35:17;;;;;;;;;;;;;;;14.31;69.02;101327.44;5067403;28;19919;-30
2022/11/02 11:37:53;;;;;;;;;;;;;;;14.37;69.34;101326.47;5050995;28;19920;-30
2022/11/02 11:40:20;;;;;;;;;;;;;;;14.42;69.34;101329.97;5052410;28;19936;-30
2022/11/02 11:42:45;;;;;;;;;;;;;;;14.49;69.01;101328.09;5051865;28;20007;-30
2022/11/02 11:45:17;;;;;;;;;;;;;;;14.55;69.24;101337.75;5051597;28;19999;-30
2022/11/02 11:47:43;;;;;;;;;;;;;;;14.58;69.12;101333.25;5051769;28;19924;-30
2022/11/02 11:50:12;;;;;;;;;;;;;;;14.63;69.03;101325.22;5051839;28;19924;-30
2022/11/02 11:52:37;;;;;;;;;;;;;;;14.69;68.76;101325.13;5050992;28;19999;-30
2022/11/02 11:55:21;;;;;;;;;;;;;;;14.74;67.73;101331.22;5052713;28;19947;-30
2022/11/02 11:57:47;;;;;;;;;;;;;;;14.80;67.23;101332.94;5052453;28;19920;-30
2022/11/02 12:00:38;;;;;;;;;;;;;;;14.82;66.94;101331.16;5050791;28;19912;-30
2022/11/02 12:03:04;;;;;;;;;;;;;;;14.85;66.49;101319.59;5065088;28;20054;-30
2022/11/02 12:05:30;;;;;;;;;;;;;;;14.87;65.99;101318.66;5051884;28;19917;-30
2022/11/02 12:07:59;;;;;;;;;;;;;;;14.89;65.50;101316.00;5051102;28;19925;-30
2022/11/02 12:10:33;;;;;;;;;;;;;;;14.88;65.96;101322.22;5052275;28;20008;-30
2022/11/02 12:13:18;;;;;;;;;;;;;;;14.89;65.06;101316.00;5052664;28;20305;-30
2022/11/02 12:15:57;;;;;;;;;;;;;;;14.91;65.96;101315.97;5052410;28;19917;-30
2022/11/02 12:18:46;;;;;;;;;;;;;;;14.96;66.28;101307.03;5051290;28;20405;-31
2022/11/02 12:21:11;;;;;;;;;;;;;;;14.97;66.78;101308.75;5035240;28;19919;-31
2022/11/02 12:23:40;;;;;;;;;;;;;;;15.00;66.47;101314.03;5056247;28;19912;-31
2022/11/02 12:26:08;;;;;;;;;;;;;;;15.03;66.40;101312.25;5055423;28;19928;-30
2022/11/02 12:28:56;;;;;;;;;;;;;;;15.07;66.25;101308.63;5055196;28;20370;-30
2022/11/02 12:31:31;;;;;;;;;;;;;;;15.10;66.14;101303.22;5054811;28;20067;-31
2022/11/02 12:34:02;;;;;;;;;;;;;;;15.17;66.36;101315.50;5055478;28;19975;-30
2022/11/02 12:36:43;;;;;;;;;;;;;;;15.23;66.04;101311.84;5054036;28;20385;-30
2022/11/02 12:39:18;;;;;;;;;;;;;;;15.27;65.68;101314.44;5055548;28;19912;-31
2022/11/02 12:42:06;;;;;;;;;;;;;;;15.30;65.31;101312.63;5054974;28;20400;-31
2022/11/02 12:44:50;;;;;;;;;;;;;;;15.36;65.82;101320.47;5049177;28;19963;-30
2022/11/02 12:47:34;;;;;;;;;;;;;;;15.43;65.55;101327.44;5034831;28;19963;-30
2022/11/02 12:50:03;;;;;;;;;;;;;;;15.47;65.59;101313.19;5035024;28;20346;-30
2022/11/02 12:52:47;;;;;;;;;;;;;;;15.51;65.20;101320.19;5050182;28;20352;-30
2022/11/02 12:55:15;;;;;;;;;;;;;;;15.56;64.90;101324.53;5054716;28;20385;-30
2022/11/02 12:57:40;;;;;;;;;;;;;;;15.64;65.56;101327.94;5053600;28;19913;-31